Time;durP1;ratioP1;P1;durP2;ratioP2;P2;SDS_P1;SDS_P2;PMS_P1;PMS_P2;Temp;Humidity;BMP_temperature;BMP_pressure;BME280_temperature;BME280_humidity;BME280_pressure;Samples;Min_cycle;Max_cycle;Signal;HPM_P1;HPM_P2
2023/11/29 00:02:29;;;;;;;1.65;1.40;;;8.90;56.10;;;;;;7526852;23;20092;-68
2023/11/29 00:05:31;;;;;;;3.42;1.42;;;8.90;56.30;;;;;;7553641;23;20086;-68
2023/11/29 00:08:32;;;;;;;2.70;1.40;;;8.90;56.40;;;;;;7503488;23;20197;-67
2023/11/29 00:11:33;;;;;;;2.72;1.20;;;8.90;56.30;;;;;;7528229;23;20014;-68
2023/11/29 00:14:33;;;;;;;1.45;1.35;;;8.90;56.20;;;;;;7528159;23;20030;-70
2023/11/29 00:17:35;;;;;;;3.65;2.05;;;8.80;56.20;;;;;;7527370;23;20014;-70
2023/11/29 00:20:36;;;;;;;2.10;1.80;;;8.80;56.40;;;;;;7528327;23;20015;-69
2023/11/29 00:23:37;;;;;;;3.58;1.63;;;8.80;56.40;;;;;;7528641;23;20010;-69
2023/11/29 00:26:38;;;;;;;2.55;1.42;;;8.80;56.40;;;;;;7554451;23;20002;-69
2023/11/29 00:29:40;;;;;;;5.30;2.28;;;8.80;56.70;;;;;;7527189;23;20452;-69
2023/11/29 00:32:41;;;;;;;2.53;1.50;;;8.80;56.70;;;;;;7552996;23;20046;-68
2023/11/29 00:35:42;;;;;;;1.40;1.10;;;8.80;56.90;;;;;;7527367;23;20106;-70
2023/11/29 00:38:44;;;;;;;1.60;1.20;;;8.90;56.80;;;;;;7527980;23;20021;-69
2023/11/29 00:41:44;;;;;;;2.58;1.70;;;8.90;57.00;;;;;;7527667;23;20010;-69
2023/11/29 00:44:45;;;;;;;2.17;1.33;;;9.00;57.10;;;;;;7528028;23;20092;-68
2023/11/29 00:47:46;;;;;;;1.85;1.58;;;9.00;56.80;;;;;;7504066;23;20042;-68
2023/11/29 00:50:47;;;;;;;1.50;1.23;;;9.00;56.70;;;;;;7527360;23;20029;-70
2023/11/29 00:53:48;;;;;;;1.85;1.48;;;9.00;56.70;;;;;;7553812;23;20040;-68
2023/11/29 00:56:50;;;;;;;2.63;1.70;;;9.00;56.60;;;;;;7527757;23;20109;-69
2023/11/29 00:59:51;;;;;;;1.90;1.20;;;9.00;56.50;;;;;;7553620;23;20456;-69
2023/11/29 01:02:51;;;;;;;2.90;1.25;;;8.90;56.50;;;;;;7526989;23;20019;-69
2023/11/29 01:05:52;;;;;;;3.95;2.55;;;8.90;56.30;;;;;;7553167;23;20066;-69
2023/11/29 01:08:53;;;;;;;4.32;1.70;;;8.90;56.60;;;;;;7527686;23;20036;-67
2023/11/29 01:11:54;;;;;;;2.47;1.63;;;8.90;56.90;;;;;;7527074;23;20014;-67
2023/11/29 01:14:55;;;;;;;4.50;2.13;;;8.90;56.90;;;;;;7527928;23;20354;-68
2023/11/29 01:17:57;;;;;;;2.65;1.30;;;8.90;56.80;;;;;;7526672;23;20010;-68
2023/11/29 01:20:59;;;;;;;2.53;1.55;;;8.90;56.70;;;;;;7526429;23;20014;-67
2023/11/29 01:24:00;;;;;;;2.72;2.33;;;8.90;56.70;;;;;;7552861;23;20422;-69
2023/11/29 01:27:01;;;;;;;2.33;1.70;;;8.90;57.10;;;;;;7553442;23;20021;-69
2023/11/29 01:30:03;;;;;;;3.42;1.52;;;8.80;56.50;;;;;;7527063;23;20018;-68
2023/11/29 01:33:04;;;;;;;2.42;1.55;;;8.90;56.50;;;;;;7552759;23;20446;-69
2023/11/29 01:36:08;;;;;;;1.52;1.30;;;8.90;56.70;;;;;;7552618;23;20109;-68
2023/11/29 01:39:14;;;;;;;2.75;1.48;;;8.80;56.80;;;;;;7526629;23;20327;-69
2023/11/29 01:42:15;;;;;;;4.57;2.08;;;8.90;56.70;;;;;;7527021;23;20021;-69
2023/11/29 01:45:16;;;;;;;2.97;2.00;;;8.90;56.70;;;;;;7553380;23;20047;-69
2023/11/29 01:48:17;;;;;;;1.55;1.45;;;8.90;56.80;;;;;;7527348;23;20369;-69
2023/11/29 01:51:19;;;;;;;2.65;1.55;;;9.00;56.90;;;;;;7526608;23;20069;-67
2023/11/29 01:54:20;;;;;;;2.67;1.75;;;8.90;56.50;;;;;;7527021;23;20061;-68
2023/11/29 01:57:22;;;;;;;1.52;0.95;;;9.00;56.50;;;;;;7552185;23;20006;-68
2023/11/29 02:00:23;;;;;;;5.00;1.52;;;9.00;56.60;;;;;;7526815;23;20018;-68
2023/11/29 02:03:24;;;;;;;1.85;1.25;;;9.00;56.50;;;;;;7503315;23;20112;-68
2023/11/29 02:06:26;;;;;;;3.90;1.75;;;9.10;56.50;;;;;;7552265;23;20047;-67
2023/11/29 02:09:27;;;;;;;3.90;1.75;;;9.00;56.40;;;;;;7502536;23;20078;-68
2023/11/29 02:12:29;;;;;;;5.57;2.00;;;9.00;56.50;;;;;;7503000;23;20425;-68
2023/11/29 02:15:30;;;;;;;2.67;2.05;;;9.10;57.00;;;;;;7502914;23;20043;-69
2023/11/29 02:18:31;;;;;;;2.42;1.52;;;9.10;56.80;;;;;;7527628;23;20090;-68
2023/11/29 02:21:32;;;;;;;2.38;1.55;;;9.10;56.60;;;;;;7526767;23;20386;-69
2023/11/29 02:24:46;;;;;;;3.63;1.58;;;9.10;56.50;;;;;;7550594;23;20441;-67
2023/11/29 02:27:47;;;;;;;2.75;1.15;;;9.10;56.30;;;;;;7527290;23;20007;-68
2023/11/29 02:30:48;;;;;;;1.95;1.05;;;9.10;55.60;;;;;;7527016;23;20373;-69
2023/11/29 02:33:49;;;;;;;1.63;0.82;;;9.10;55.50;;;;;;7552282;23;20061;-69
2023/11/29 02:36:50;;;;;;;1.30;1.00;;;9.00;55.40;;;;;;7551618;23;20112;-68
2023/11/29 02:39:51;;;;;;;0.85;0.82;;;9.10;55.10;;;;;;7526405;23;20010;-69
2023/11/29 02:42:51;;;;;;;1.98;1.25;;;9.20;54.90;;;;;;7525197;23;20452;-69
2023/11/29 02:45:52;;;;;;;1.65;1.27;;;9.10;54.80;;;;;;7501742;23;20030;-69
2023/11/29 02:48:53;;;;;;;1.30;1.20;;;9.10;54.60;;;;;;7551924;23;20061;-68
2023/11/29 02:51:54;;;;;;;1.25;1.10;;;9.10;54.40;;;;;;7526221;23;20129;-68
2023/11/29 02:54:55;;;;;;;3.17;1.95;;;9.20;54.40;;;;;;7503644;23;20446;-69
2023/11/29 02:57:57;;;;;;;4.47;1.60;;;9.30;54.80;;;;;;7528390;23;20014;-69
2023/11/29 03:00:57;;;;;;;3.28;1.65;;;9.30;55.30;;;;;;7528230;23;20019;-68
2023/11/29 03:03:58;;;;;;;2.35;1.48;;;9.20;55.70;;;;;;7554429;23;20405;-68
2023/11/29 03:07:00;;;;;;;2.15;1.13;;;9.20;56.00;;;;;;7554586;23;20897;-68
2023/11/29 03:10:00;;;;;;;3.33;2.25;;;9.20;56.30;;;;;;7528713;23;20101;-68
2023/11/29 03:13:01;;;;;;;2.17;1.77;;;9.20;56.50;;;;;;7554390;23;20081;-69
2023/11/29 03:16:03;;;;;;;2.60;1.58;;;9.10;56.60;;;;;;7528299;23;20114;-68
2023/11/29 03:19:04;;;;;;;7.00;1.83;;;9.10;56.80;;;;;;7528120;23;20129;-67
2023/11/29 03:22:05;;;;;;;2.55;1.42;;;9.10;56.80;;;;;;7528502;23;20034;-69
2023/11/29 03:25:06;;;;;;;1.98;1.33;;;9.10;56.60;;;;;;7554912;23;20402;-68
2023/11/29 03:28:07;;;;;;;1.50;0.90;;;9.00;56.50;;;;;;7528525;23;20086;-68
2023/11/29 03:31:08;;;;;;;1.15;1.02;;;9.00;56.50;;;;;;7528889;23;20021;-67
2023/11/29 03:34:09;;;;;;;2.75;1.50;;;9.00;56.30;;;;;;7504456;23;20010;-68
2023/11/29 03:37:11;;;;;;;1.70;1.38;;;9.00;56.20;;;;;;7553920;23;20022;-69
2023/11/29 03:40:14;;;;;;;2.28;1.30;;;9.00;55.80;;;;;;7528554;23;20496;-68
2023/11/29 03:43:15;;;;;;;0.95;0.90;;;9.00;55.60;;;;;;7553948;23;20162;-68
2023/11/29 03:46:16;;;;;;;2.67;1.77;;;9.00;55.50;;;;;;7529089;23;20089;-67
2023/11/29 03:49:17;;;;;;;3.03;1.35;;;9.00;55.50;;;;;;7528301;23;20045;-68
2023/11/29 03:52:19;;;;;;;1.83;1.20;;;9.00;56.00;;;;;;7528132;23;20184;-68
2023/11/29 03:55:21;;;;;;;1.17;0.70;;;8.90;55.40;;;;;;7552470;23;20093;-69
2023/11/29 03:58:22;;;;;;;2.38;1.33;;;8.90;55.30;;;;;;7554311;23;20049;-68
2023/11/29 04:01:23;;;;;;;1.70;0.95;;;8.90;55.20;;;;;;7527911;23;20010;-70
2023/11/29 04:04:25;;;;;;;1.30;1.17;;;9.00;55.20;;;;;;7552873;23;20010;-68
2023/11/29 04:07:25;;;;;;;1.60;1.13;;;8.90;55.20;;;;;;7527228;23;20025;-68
2023/11/29 04:10:29;;;;;;;1.58;1.20;;;8.90;55.20;;;;;;7527105;23;20057;-68
2023/11/29 04:13:32;;;;;;;2.13;1.20;;;8.80;55.30;;;;;;7527502;23;20097;-69
2023/11/29 04:16:35;;;;;;;5.13;1.88;;;8.80;55.30;;;;;;7527291;23;20405;-68
2023/11/29 04:19:39;;;;;;;3.85;1.90;;;8.90;55.50;;;;;;7553452;23;20022;-67
2023/11/29 04:22:42;;;;;;;1.58;1.40;;;8.90;55.60;;;;;;7503472;23;20141;-68
2023/11/29 04:25:43;;;;;;;2.92;1.23;;;9.00;55.70;;;;;;7553737;23;20010;-69
2023/11/29 04:28:44;;;;;;;2.83;1.88;;;9.00;55.90;;;;;;7553556;23;20006;-68
2023/11/29 04:31:45;;;;;;;3.75;2.00;;;9.00;56.10;;;;;;7526936;23;20021;-67
2023/11/29 04:34:46;;;;;;;4.10;2.10;;;9.00;56.40;;;;;;7553104;23;20010;-68
2023/11/29 04:37:47;;;;;;;7.72;2.85;;;9.00;56.50;;;;;;7503953;23;20053;-69
2023/11/29 04:40:48;;;;;;;3.33;2.30;;;9.00;56.80;;;;;;7527385;23;20066;-68
2023/11/29 04:43:49;;;;;;;2.80;2.22;;;9.00;57.00;;;;;;7527160;23;20836;-68
2023/11/29 04:46:51;;;;;;;3.42;2.17;;;9.00;57.20;;;;;;7527142;23;20014;-68
2023/11/29 04:49:52;;;;;;;3.85;2.10;;;9.00;57.40;;;;;;7480077;23;20093;-68
2023/11/29 04:52:53;;;;;;;5.40;2.10;;;8.90;57.60;;;;;;7552663;23;20113;-69
2023/11/29 04:55:55;;;;;;;3.92;2.08;;;8.90;57.80;;;;;;7553337;23;20416;-68
2023/11/29 04:58:56;;;;;;;4.45;1.85;;;8.90;57.90;;;;;;7553150;23;20020;-67
2023/11/29 05:01:58;;;;;;;10.00;3.67;;;8.90;58.20;;;;;;7527409;23;20025;-68
2023/11/29 05:04:58;;;;;;;5.47;3.20;;;8.90;58.50;;;;;;7553226;23;20086;-70
2023/11/29 05:08:01;;;;;;;3.90;2.92;;;8.90;58.70;;;;;;7527390;23;20058;-69
2023/11/29 05:11:07;;;;;;;3.72;2.15;;;8.90;58.80;;;;;;7526865;23;20294;-69
2023/11/29 05:14:08;;;;;;;4.45;2.38;;;8.80;58.80;;;;;;7552651;23;20171;-67
2023/11/29 05:17:09;;;;;;;3.17;2.00;;;8.80;58.90;;;;;;7502726;23;20020;-69
2023/11/29 05:20:11;;;;;;;2.88;2.03;;;8.70;59.00;;;;;;7503299;23;20073;-69
2023/11/29 05:23:12;;;;;;;6.25;2.83;;;8.70;58.90;;;;;;7527214;23;20058;-70
2023/11/29 05:26:13;;;;;;;3.42;2.33;;;8.70;59.00;;;;;;7552846;23;20124;-69
2023/11/29 05:29:13;;;;;;;3.55;2.33;;;8.70;59.00;;;;;;7553024;23;20018;-69
2023/11/29 05:32:14;;;;;;;2.50;2.25;;;8.70;59.00;;;;;;7527334;23;20018;-67
2023/11/29 05:35:17;;;;;;;4.13;2.42;;;8.70;59.00;;;;;;7526085;23;20105;-69
2023/11/29 05:38:18;;;;;;;6.57;2.70;;;8.70;59.00;;;;;;7526952;23;20014;-69
2023/11/29 05:41:19;;;;;;;4.18;2.20;;;8.80;59.10;;;;;;7552608;23;20049;-68
2023/11/29 05:44:24;;;;;;;3.17;2.65;;;8.60;59.10;;;;;;7527382;23;20014;-69
2023/11/29 05:47:24;;;;;;;3.80;2.08;;;8.50;59.00;;;;;;7552096;23;20030;-68
2023/11/29 05:50:25;;;;;;;4.95;2.42;;;8.60;59.10;;;;;;7526412;23;20088;-68
2023/11/29 05:53:26;;;;;;;3.15;1.50;;;8.60;59.30;;;;;;7526740;23;20093;-68
2023/11/29 05:56:30;;;;;;;3.50;2.28;;;8.60;59.30;;;;;;7550503;23;20022;-68
2023/11/29 05:59:31;;;;;;;5.10;2.30;;;8.60;59.30;;;;;;7527042;23;20153;-69
2023/11/29 06:02:32;;;;;;;4.65;2.25;;;8.60;59.40;;;;;;7526990;23;20373;-68
2023/11/29 06:05:33;;;;;;;3.33;2.35;;;8.60;59.40;;;;;;7526597;23;20088;-68
2023/11/29 06:08:34;;;;;;;3.25;2.30;;;8.70;59.40;;;;;;7550833;23;20104;-68
2023/11/29 06:11:36;;;;;;;3.70;2.40;;;8.70;59.40;;;;;;7551832;23;20022;-69
2023/11/29 06:14:37;;;;;;;5.32;3.00;;;8.70;59.40;;;;;;7526574;23;20114;-69
2023/11/29 06:17:38;;;;;;;3.75;2.47;;;8.70;59.30;;;;;;7501990;23;20226;-68
2023/11/29 06:20:40;;;;;;;5.78;2.97;;;8.70;59.30;;;;;;7552476;23;20128;-69
2023/11/29 06:23:44;;;;;;;9.40;2.25;;;8.70;59.40;;;;;;7525883;23;20038;-69
2023/11/29 06:26:46;;;;;;;2.67;2.15;;;8.70;59.60;;;;;;7505160;23;20620;-70
2023/11/29 06:29:46;;;;;;;4.00;2.20;;;8.60;59.60;;;;;;7553423;23;20010;-69
2023/11/29 06:32:49;;;;;;;3.65;2.08;;;8.70;59.70;;;;;;7555048;23;20006;-69
2023/11/29 06:35:50;;;;;;;3.63;2.28;;;8.70;59.70;;;;;;7504612;23;20068;-70
2023/11/29 06:38:52;;;;;;;5.45;2.50;;;8.70;59.60;;;;;;7505143;23;20045;-69
2023/11/29 06:41:53;;;;;;;5.00;2.55;;;8.70;59.60;;;;;;7527881;23;20112;-70
2023/11/29 06:44:55;;;;;;;3.22;2.05;;;8.60;59.50;;;;;;7530006;23;20069;-69
2023/11/29 06:47:57;;;;;;;4.63;2.45;;;8.60;59.60;;;;;;7529198;23;20012;-69
2023/11/29 06:51:00;;;;;;;15.13;2.47;;;8.60;59.70;;;;;;7555419;23;20010;-69
2023/11/29 06:54:02;;;;;;;4.47;2.38;;;8.60;59.70;;;;;;7529534;23;20007;-69
2023/11/29 06:57:03;;;;;;;3.75;2.90;;;8.60;59.80;;;;;;7528683;23;20073;-69
2023/11/29 07:00:09;;;;;;;9.40;2.33;;;8.60;59.80;;;;;;7529067;23;20050;-70
2023/11/29 07:03:11;;;;;;;5.68;2.63;;;8.60;59.90;;;;;;7555670;23;20199;-70
2023/11/29 07:06:21;;;;;;;3.83;2.30;;;8.60;59.90;;;;;;7554974;23;20013;-71
2023/11/29 07:09:22;;;;;;;6.88;2.60;;;8.70;59.80;;;;;;7530916;23;20014;-71
2023/11/29 07:12:23;;;;;;;4.05;2.15;;;8.70;59.80;;;;;;7529716;23;20115;-72
2023/11/29 07:15:25;;;;;;;3.53;2.15;;;8.60;59.80;;;;;;7555172;23;20010;-69
2023/11/29 07:18:26;;;;;;;4.10;2.35;;;8.60;59.80;;;;;;7555668;23;20040;-69
2023/11/29 07:21:26;;;;;;;3.30;2.08;;;8.70;59.80;;;;;;7528902;23;20010;-69
2023/11/29 07:24:27;;;;;;;6.35;2.78;;;8.70;59.70;;;;;;7554509;23;20070;-71
2023/11/29 07:27:28;;;;;;;3.17;1.95;;;8.70;59.70;;;;;;7553935;23;20107;-69
2023/11/29 07:30:29;;;;;;;6.93;2.92;;;8.80;59.70;;;;;;7554411;23;20017;-71
2023/11/29 07:33:29;;;;;;;3.75;2.30;;;8.80;59.70;;;;;;7528353;23;20006;-72
2023/11/29 07:36:30;;;;;;;7.25;3.25;;;8.90;59.70;;;;;;7528204;23;20014;-69
2023/11/29 07:39:31;;;;;;;5.22;2.40;;;8.90;59.70;;;;;;7528722;23;20573;-71
2023/11/29 07:42:32;;;;;;;5.47;2.47;;;8.90;59.70;;;;;;7554502;23;20011;-70
2023/11/29 07:45:33;;;;;;;4.10;2.63;;;9.00;59.70;;;;;;7553845;23;20033;-70
2023/11/29 07:48:33;;;;;;;7.10;2.30;;;9.00;59.70;;;;;;7527911;23;20476;-69
2023/11/29 07:51:34;;;;;;;2.42;2.05;;;9.00;59.60;;;;;;7528160;23;20038;-69
2023/11/29 07:54:35;;;;;;;3.20;2.03;;;9.00;59.40;;;;;;7555017;23;20366;-69
2023/11/29 07:57:36;;;;;;;5.65;3.08;;;9.00;59.40;;;;;;7528741;23;20038;-71
2023/11/29 08:00:38;;;;;;;6.97;2.42;;;9.00;59.30;;;;;;7554473;23;20025;-69
2023/11/29 08:03:41;;;;;;;5.18;2.47;;;9.00;59.30;;;;;;7555052;23;20026;-70
2023/11/29 08:06:41;;;;;;;3.92;2.60;;;9.10;59.20;;;;;;7529470;23;20414;-71
2023/11/29 08:09:44;;;;;;;6.30;3.42;;;9.10;59.10;;;;;;7555738;23;20062;-73
2023/11/29 08:12:46;;;;;;;4.50;2.65;;;9.20;59.00;;;;;;7556140;23;20322;-72
2023/11/29 08:15:48;;;;;;;5.75;2.78;;;9.20;59.00;;;;;;7529301;23;20410;-71
2023/11/29 08:18:51;;;;;;;8.27;3.03;;;9.20;58.90;;;;;;7529003;23;20014;-72
2023/11/29 08:21:52;;;;;;;4.97;3.08;;;9.30;58.80;;;;;;7529885;23;20101;-70
2023/11/29 08:24:53;;;;;;;3.40;2.53;;;9.40;58.60;;;;;;7529726;23;20492;-71
2023/11/29 08:27:54;;;;;;;3.13;2.15;;;9.40;58.30;;;;;;7554832;23;20078;-71
2023/11/29 08:30:55;;;;;;;5.32;3.03;;;9.40;58.30;;;;;;7528716;23;20044;-71
2023/11/29 08:33:55;;;;;;;4.95;2.78;;;9.40;58.20;;;;;;7554195;23;20116;-69
2023/11/29 08:36:56;;;;;;;6.55;3.38;;;9.60;58.40;;;;;;7528780;23;20025;-72
2023/11/29 08:39:59;;;;;;;5.50;3.28;;;9.60;58.30;;;;;;7530405;23;20018;-72
2023/11/29 08:43:00;;;;;;;4.43;2.40;;;9.70;58.20;;;;;;7555355;23;20441;-70
2023/11/29 08:46:03;;;;;;;10.30;3.25;;;9.70;58.00;;;;;;7554178;23;20065;-71
2023/11/29 08:49:04;;;;;;;7.00;3.35;;;9.80;57.90;;;;;;7527773;23;20058;-71
2023/11/29 08:52:05;;;;;;;6.05;3.20;;;9.80;57.80;;;;;;7554546;23;20022;-70
2023/11/29 08:55:08;;;;;;;5.10;2.83;;;9.80;57.70;;;;;;7554120;23;20014;-70
2023/11/29 08:58:09;;;;;;;20.70;3.60;;;9.80;57.60;;;;;;7554300;23;20402;-70
2023/11/29 09:01:19;;;;;;;7.40;3.40;;;9.80;57.70;;;;;;7552381;23;20069;-70
2023/11/29 09:04:22;;;;;;;7.03;3.38;;;9.80;57.70;;;;;;7527008;23;20022;-69
2023/11/29 09:07:23;;;;;;;6.85;3.60;;;9.80;57.80;;;;;;7528226;23;20006;-71
2023/11/29 09:10:24;;;;;;;10.20;3.33;;;9.90;57.70;;;;;;7553682;23;20395;-68
2023/11/29 09:13:26;;;;;;;12.32;3.90;;;9.90;57.50;;;;;;7527574;23;19999;-69
2023/11/29 09:16:26;;;;;;;7.68;3.58;;;10.00;57.50;;;;;;7503419;23;20409;-70
2023/11/29 09:19:27;;;;;;;7.28;3.42;;;10.00;57.40;;;;;;7552441;23;20033;-71
2023/11/29 09:22:29;;;;;;;9.18;3.83;;;10.10;57.30;;;;;;7551902;23;20036;-70
2023/11/29 09:25:30;;;;;;;5.72;2.58;;;10.10;57.40;;;;;;7526584;23;20032;-69
2023/11/29 09:28:31;;;;;;;10.02;3.70;;;10.20;56.90;;;;;;7526885;23;20010;-69
2023/11/29 09:31:31;;;;;;;6.55;3.03;;;10.20;56.80;;;;;;7551807;23;20010;-69
2023/11/29 09:34:33;;;;;;;10.50;5.32;;;10.30;56.80;;;;;;7551243;23;20049;-70
2023/11/29 09:37:34;;;;;;;11.15;5.53;;;10.50;56.70;;;;;;7525833;23;20389;-70
2023/11/29 09:40:34;;;;;;;10.18;4.20;;;10.50;56.40;;;;;;7552868;23;20029;-72
2023/11/29 09:43:35;;;;;;;6.70;3.20;;;10.60;56.20;;;;;;7502045;23;20679;-70
2023/11/29 09:46:37;;;;;;;11.80;4.57;;;10.60;55.80;;;;;;7553028;23;20373;-70
2023/11/29 09:49:38;;;;;;;6.50;3.45;;;10.50;55.80;;;;;;7526037;23;20010;-70
2023/11/29 09:52:40;;;;;;;4.82;3.25;;;10.50;55.80;;;;;;7549858;23;20010;-70
2023/11/29 09:55:41;;;;;;;4.93;2.75;;;10.50;55.20;;;;;;7526070;23;20015;-70
2023/11/29 09:58:43;;;;;;;4.25;2.42;;;10.50;54.90;;;;;;7526650;23;20240;-68
2023/11/29 10:01:46;;;;;;;6.95;2.47;;;10.40;54.30;;;;;;7552125;23;20515;-69
2023/11/29 10:04:47;;;;;;;5.75;3.00;;;10.40;54.10;;;;;;7553063;23;20047;-69
2023/11/29 10:07:49;;;;;;;6.57;2.67;;;10.40;54.10;;;;;;7528007;23;20078;-68
2023/11/29 10:10:50;;;;;;;5.35;2.75;;;10.40;53.90;;;;;;7526872;23;20014;-71
2023/11/29 10:13:52;;;;;;;5.45;3.55;;;10.30;53.80;;;;;;7551309;23;20054;-70
2023/11/29 10:16:53;;;;;;;6.47;2.42;;;10.30;53.70;;;;;;7527258;23;20019;-70
2023/11/29 10:19:57;;;;;;;2.30;1.83;;;10.20;53.80;;;;;;7552846;23;20013;-71
2023/11/29 10:22:58;;;;;;;7.45;2.83;;;10.20;53.10;;;;;;7553116;23;20358;-69
2023/11/29 10:25:59;;;;;;;8.43;2.53;;;10.30;52.60;;;;;;7552680;23;20037;-70
2023/11/29 10:29:00;;;;;;;2.60;1.67;;;10.30;52.00;;;;;;7527013;23;20014;-72
2023/11/29 10:32:08;;;;;;;3.55;2.20;;;10.30;51.70;;;;;;7526966;23;20295;-71
2023/11/29 10:35:12;;;;;;;3.97;2.03;;;10.60;51.30;;;;;;7552183;23;20021;-72
2023/11/29 10:38:14;;;;;;;6.80;2.55;;;11.00;50.50;;;;;;7551751;23;20241;-71
2023/11/29 10:41:18;;;;;;;2.65;1.60;;;11.30;49.30;;;;;;7550981;23;20022;-68
2023/11/29 10:44:28;;;;;;;3.38;1.85;;;11.60;48.70;;;;;;7526140;23;20073;-71
2023/11/29 10:47:37;;;;;;;2.13;1.20;;;12.00;47.30;;;;;;7551585;23;20078;-72
2023/11/29 10:50:40;;;;;;;2.63;1.60;;;12.40;46.80;;;;;;7553516;23;20007;-71
2023/11/29 10:53:43;;;;;;;2.58;1.42;;;13.10;45.90;;;;;;7526851;23;20086;-71
2023/11/29 10:56:45;;;;;;;2.40;1.50;;;13.80;44.30;;;;;;7553184;23;20137;-71
2023/11/29 11:00:15;;;;;;;10.57;4.43;;;14.40;42.40;;;;;;7551835;23;20010;-71
2023/11/29 11:03:42;;;;;;;8.52;3.83;;;15.00;41.20;;;;;;7527337;23;20093;-71
2023/11/29 11:06:44;;;;;;;3.55;2.22;;;15.60;39.60;;;;;;7527861;23;20168;-71
2023/11/29 11:09:45;;;;;;;5.95;3.20;;;15.90;38.10;;;;;;7526832;23;20396;-71
2023/11/29 11:12:46;;;;;;;3.28;2.13;;;16.20;37.70;;;;;;7527169;23;20461;-71
2023/11/29 11:15:47;;;;;;;9.40;4.18;;;16.80;37.20;;;;;;7554549;23;20038;-70
2023/11/29 11:18:54;;;;;;;4.90;1.98;;;17.20;35.30;;;;;;7552623;23;20014;-70
2023/11/29 11:22:01;;;;;;;3.10;1.80;;;17.30;34.60;;;;;;7553713;23;20021;-71
2023/11/29 11:25:12;;;;;;;3.95;1.95;;;17.10;34.50;;;;;;7553025;23;20018;-69
2023/11/29 11:28:27;;;;;;;5.75;3.03;;;16.90;34.80;;;;;;7528753;23;20030;-72
2023/11/29 11:31:28;;;;;;;3.75;2.00;;;16.50;35.40;;;;;;7528389;23;20029;-72
2023/11/29 11:34:31;;;;;;;9.63;3.08;;;16.50;35.10;;;;;;7554220;23;20294;-71
2023/11/29 11:37:33;;;;;;;8.02;3.30;;;16.40;34.40;;;;;;7553459;23;20105;-72
2023/11/29 11:40:37;;;;;;;2.70;1.80;;;16.10;35.10;;;;;;7527473;23;20038;-70
2023/11/29 11:43:38;;;;;;;6.22;3.05;;;15.80;35.90;;;;;;7554508;23;20034;-71
2023/11/29 11:46:39;;;;;;;7.22;2.60;;;15.30;36.70;;;;;;7527695;23;20125;-70
2023/11/29 11:49:43;;;;;;;11.82;3.40;;;14.90;37.20;;;;;;7527331;23;20006;-71
2023/11/29 11:52:44;;;;;;;4.80;1.92;;;14.40;37.80;;;;;;7553582;23;20013;-70
2023/11/29 11:55:48;;;;;;;2.00;1.65;;;14.00;38.40;;;;;;7554712;23;20025;-70
2023/11/29 11:58:49;;;;;;;2.25;1.58;;;13.60;38.80;;;;;;7554622;23;20500;-70
2023/11/29 12:01:50;;;;;;;1.48;1.13;;;13.30;39.50;;;;;;7503048;23;20078;-69
2023/11/29 12:04:51;;;;;;;3.42;1.63;;;13.00;39.90;;;;;;7504862;23;20445;-71
2023/11/29 12:07:52;;;;;;;2.95;1.67;;;12.90;40.20;;;;;;7554356;23;20003;-70
2023/11/29 12:10:53;;;;;;;5.85;2.67;;;12.70;40.60;;;;;;7554010;23;20011;-70
2023/11/29 12:13:54;;;;;;;4.93;2.03;;;12.50;41.00;;;;;;7528909;23;20094;-71
2023/11/29 12:16:56;;;;;;;3.80;1.60;;;12.40;41.20;;;;;;7553891;23;20341;-70
2023/11/29 12:19:57;;;;;;;2.15;1.60;;;12.20;41.40;;;;;;7553868;23;20057;-70
2023/11/29 12:22:58;;;;;;;2.05;1.33;;;12.10;41.80;;;;;;7527326;23;20109;-70
2023/11/29 12:25:59;;;;;;;2.65;1.55;;;12.00;42.20;;;;;;7553197;23;20278;-71
2023/11/29 12:29:00;;;;;;;4.18;1.85;;;11.90;42.50;;;;;;7553336;23;20433;-69
2023/11/29 12:32:01;;;;;;;3.13;1.70;;;11.80;42.60;;;;;;7553630;23;20482;-69
2023/11/29 12:35:05;;;;;;;4.00;1.70;;;11.80;42.60;;;;;;7553226;23;20056;-70
2023/11/29 12:38:07;;;;;;;2.05;1.33;;;11.60;42.70;;;;;;7552695;23;20465;-70
2023/11/29 12:41:11;;;;;;;2.90;1.20;;;11.70;42.90;;;;;;7553310;23;20014;-71
2023/11/29 12:44:13;;;;;;;2.67;1.58;;;11.60;43.00;;;;;;7526936;23;20109;-69
2023/11/29 12:47:13;;;;;;;2.47;1.23;;;11.50;43.20;;;;;;7554346;23;20082;-72
2023/11/29 12:50:14;;;;;;;2.28;1.40;;;11.50;43.20;;;;;;7527503;23;20002;-69
2023/11/29 12:53:15;;;;;;;6.00;3.38;;;11.60;43.40;;;;;;7553154;23;20016;-71
2023/11/29 12:56:21;;;;;;;2.72;1.60;;;11.50;43.40;;;;;;7554293;23;20006;-71
2023/11/29 12:59:22;;;;;;;1.67;1.30;;;11.50;43.40;;;;;;7552640;23;20065;-71
2023/11/29 13:02:24;;;;;;;3.00;1.23;;;11.50;43.40;;;;;;7553553;23;20045;-71
2023/11/29 13:05:25;;;;;;;2.13;1.25;;;11.50;43.40;;;;;;7553141;23;20032;-69
2023/11/29 13:08:26;;;;;;;2.53;1.45;;;11.50;43.30;;;;;;7552681;23;20068;-70
2023/11/29 13:11:26;;;;;;;2.30;1.20;;;11.30;43.20;;;;;;7527800;23;20089;-71
2023/11/29 13:14:27;;;;;;;1.98;1.15;;;11.40;43.50;;;;;;7526287;23;20421;-71
2023/11/29 13:17:29;;;;;;;6.13;1.30;;;11.40;43.50;;;;;;7552936;23;20564;-69
2023/11/29 13:20:32;;;;;;;3.00;1.40;;;11.40;43.50;;;;;;7503211;23;20010;-70
2023/11/29 13:23:35;;;;;;;5.43;1.05;;;11.40;43.60;;;;;;7552614;23;20017;-71
2023/11/29 13:26:38;;;;;;;3.50;1.20;;;11.50;43.50;;;;;;7527232;23;20006;-70
2023/11/29 13:29:39;;;;;;;3.05;1.67;;;11.50;43.60;;;;;;7551224;23;20449;-71
2023/11/29 13:32:40;;;;;;;3.22;1.35;;;11.40;43.50;;;;;;7553321;23;20054;-70
2023/11/29 13:35:41;;;;;;;1.65;1.17;;;11.50;43.70;;;;;;7502529;23;20026;-71
2023/11/29 13:38:42;;;;;;;1.42;1.05;;;11.50;43.80;;;;;;7527060;23;20417;-71
2023/11/29 13:41:43;;;;;;;4.28;1.92;;;11.50;43.70;;;;;;7528580;23;20021;-70
2023/11/29 13:44:44;;;;;;;2.95;1.58;;;11.60;43.60;;;;;;7527329;23;20014;-70
2023/11/29 13:47:47;;;;;;;2.83;0.90;;;11.60;43.50;;;;;;7552444;23;20070;-70
2023/11/29 13:50:49;;;;;;;1.65;1.20;;;11.60;43.40;;;;;;7553256;23;20034;-71
2023/11/29 13:53:50;;;;;;;4.35;0.90;;;11.60;43.10;;;;;;7526618;23;20292;-70
2023/11/29 13:57:15;;;;;;;0.70;0.60;;;11.60;43.10;;;;;;7553467;23;20492;-70
2023/11/29 14:00:17;;;;;;;11.25;0.90;;;11.60;43.00;;;;;;7553319;23;20044;-69
2023/11/29 14:03:18;;;;;;;2.40;1.27;;;11.60;43.10;;;;;;7526905;23;20523;-70
2023/11/29 14:06:19;;;;;;;1.50;0.93;;;11.70;43.10;;;;;;7527336;23;20081;-70
2023/11/29 14:09:20;;;;;;;1.95;1.10;;;11.80;43.30;;;;;;7552589;23;20015;-70
2023/11/29 14:12:23;;;;;;;10.45;2.80;;;11.80;43.20;;;;;;7552870;23;20034;-70
2023/11/29 14:15:24;;;;;;;0.82;0.70;;;11.90;43.00;;;;;;7527261;23;20007;-69
2023/11/29 14:18:24;;;;;;;5.30;1.55;;;12.00;42.60;;;;;;7527095;23;20018;-70
2023/11/29 14:21:26;;;;;;;2.92;1.55;;;12.00;42.40;;;;;;7525865;23;20014;-69
2023/11/29 14:24:27;;;;;;;2.25;1.52;;;12.10;42.70;;;;;;7552628;23;20108;-69
2023/11/29 14:27:28;;;;;;;4.65;2.08;;;12.10;42.70;;;;;;7526510;23;20458;-72
2023/11/29 14:30:33;;;;;;;6.45;2.85;;;12.00;42.70;;;;;;7525877;23;20010;-70
2023/11/29 14:33:34;;;;;;;3.33;2.15;;;12.00;43.60;;;;;;7527085;23;20033;-72
2023/11/29 14:36:38;;;;;;;2.67;1.45;;;12.10;43.80;;;;;;7526975;23;20063;-72
2023/11/29 14:39:39;;;;;;;3.08;1.17;;;12.10;43.20;;;;;;7553359;23;20087;-71
2023/11/29 14:42:40;;;;;;;4.30;1.60;;;12.10;43.30;;;;;;7554395;23;20018;-71
2023/11/29 14:45:41;;;;;;;4.00;1.48;;;12.10;43.50;;;;;;7551727;23;20433;-70
2023/11/29 14:48:51;;;;;;;8.98;1.98;;;12.00;43.60;;;;;;7552598;23;20007;-72
2023/11/29 14:51:52;;;;;;;2.33;1.20;;;12.10;43.80;;;;;;7554562;23;20022;-71
2023/11/29 14:54:54;;;;;;;2.45;1.30;;;12.10;43.80;;;;;;7504654;23;20086;-70
2023/11/29 14:57:54;;;;;;;1.98;1.58;;;12.10;43.70;;;;;;7555098;23;20030;-70
2023/11/29 15:00:55;;;;;;;1.95;0.93;;;12.10;43.80;;;;;;7528874;23;20336;-72
2023/11/29 15:03:56;;;;;;;5.22;2.25;;;12.10;43.90;;;;;;7528162;23;20608;-71
2023/11/29 15:06:57;;;;;;;2.67;1.50;;;12.10;44.00;;;;;;7554788;23;20010;-69
2023/11/29 15:09:58;;;;;;;3.67;1.63;;;12.10;44.10;;;;;;7555342;23;20010;-74
2023/11/29 15:12:59;;;;;;;2.28;0.93;;;12.10;44.20;;;;;;7528389;23;20082;-71
2023/11/29 15:16:00;;;;;;;1.85;1.00;;;12.10;44.20;;;;;;7528369;23;20038;-71
2023/11/29 15:19:07;;;;;;;3.00;1.52;;;12.10;44.20;;;;;;7527721;23;20017;-72
2023/11/29 15:22:07;;;;;;;2.72;1.52;;;12.10;44.00;;;;;;7554930;23;20270;-70
2023/11/29 15:25:11;;;;;;;3.83;1.65;;;12.10;44.00;;;;;;7554997;23;20017;-70
2023/11/29 15:28:14;;;;;;;5.22;1.90;;;12.00;44.00;;;;;;7555371;23;20017;-71
2023/11/29 15:31:17;;;;;;;5.78;2.40;;;11.90;44.00;;;;;;7529470;23;20038;-71
2023/11/29 15:34:18;;;;;;;7.07;2.10;;;11.80;44.10;;;;;;7553633;23;20006;-73
2023/11/29 15:37:19;;;;;;;4.93;1.60;;;11.70;44.30;;;;;;7527340;23;20361;-70
2023/11/29 15:40:20;;;;;;;3.13;1.55;;;11.70;44.40;;;;;;7527652;23;20696;-72
2023/11/29 15:43:23;;;;;;;3.75;1.70;;;11.60;44.40;;;;;;7553462;23;20480;-71
2023/11/29 15:46:24;;;;;;;3.30;1.63;;;11.60;44.60;;;;;;7554416;23;20062;-71
2023/11/29 15:49:28;;;;;;;4.60;2.20;;;11.50;44.80;;;;;;7503647;23;20487;-70
2023/11/29 15:52:31;;;;;;;3.05;1.90;;;11.40;44.90;;;;;;7553006;23;20117;-70
2023/11/29 15:55:33;;;;;;;2.25;1.63;;;11.40;44.90;;;;;;7528597;23;20506;-70